Time;durP1;ratioP1;P1;durP2;ratioP2;P2;SDS_P1;SDS_P2;PMS_P1;PMS_P2;Temp;Humidity;BMP_temperature;BMP_pressure;BME280_temperature;BME280_humidity;BME280_pressure;Samples;Min_cycle;Max_cycle;Signal;HPM_P1;HPM_P2
2023/06/23 00:01:14;;;;;;;0.20;0.20;;;15.20;99.90;;;;;;5119830;28;20711;-91
2023/06/23 00:03:46;;;;;;;0.65;0.30;;;15.20;99.90;;;;;;5119765;28;20618;-92
2023/06/23 00:06:18;;;;;;;0.38;0.20;;;15.30;99.90;;;;;;5120912;28;20232;-91
2023/06/23 00:08:50;;;;;;;0.40;0.20;;;15.40;99.90;;;;;;5120212;28;20256;-92
2023/06/23 00:11:22;;;;;;;0.28;0.20;;;15.50;99.90;;;;;;5119517;28;20198;-92
2023/06/23 00:13:56;;;;;;;0.25;0.20;;;15.60;99.90;;;;;;5121153;28;20262;-92
2023/06/23 00:16:27;;;;;;;2.38;0.30;;;15.70;99.90;;;;;;5120639;28;20190;-93
2023/06/23 00:18:59;;;;;;;0.90;0.30;;;15.70;99.90;;;;;;5119115;28;20237;-92
2023/06/23 00:21:30;;;;;;;0.68;0.13;;;15.70;99.90;;;;;;5103465;28;20227;-91
2023/06/23 00:24:01;;;;;;;0.88;0.30;;;15.70;99.90;;;;;;5116290;28;20376;-91
2023/06/23 00:26:34;;;;;;;1.05;0.20;;;15.70;99.90;;;;;;5117143;28;20654;-92
2023/06/23 00:29:08;;;;;;;1.17;0.22;;;15.90;99.90;;;;;;5117610;28;20247;-91
2023/06/23 00:31:39;;;;;;;0.63;0.28;;;16.00;99.90;;;;;;5118364;28;20201;-90
2023/06/23 00:34:10;;;;;;;0.45;0.30;;;16.00;99.90;;;;;;5105071;28;20677;-92
2023/06/23 00:36:41;;;;;;;0.30;0.30;;;16.10;99.90;;;;;;5078258;28;20218;-92
2023/06/23 00:39:13;;;;;;;0.65;0.60;;;16.00;99.90;;;;;;5095167;28;20575;-91
2023/06/23 00:41:46;;;;;;;0.52;0.52;;;16.10;99.90;;;;;;5078774;28;20242;-92
2023/06/23 00:44:18;;;;;;;0.30;0.28;;;16.20;99.90;;;;;;5075015;28;20246;-91
2023/06/23 00:46:52;;;;;;;0.20;0.20;;;16.30;99.90;;;;;;5074948;28;20192;-93
2023/06/23 00:49:22;;;;;;;2.25;0.20;;;16.30;99.90;;;;;;5079908;28;20206;-92
2023/06/23 00:51:54;;;;;;;1.05;0.20;;;16.40;99.90;;;;;;5102497;28;20202;-92
2023/06/23 00:54:28;;;;;;;0.30;0.30;;;16.50;99.90;;;;;;5115116;28;20230;-92
2023/06/23 00:57:00;;;;;;;0.38;0.30;;;16.60;99.90;;;;;;5099286;28;20281;-92
2023/06/23 00:59:35;;;;;;;1.55;0.40;;;16.70;99.90;;;;;;5083816;28;20544;-92
2023/06/23 01:02:07;;;;;;;0.20;0.20;;;16.80;99.90;;;;;;5075614;28;20223;-92
2023/06/23 01:04:40;;;;;;;0.43;0.28;;;16.80;99.90;;;;;;5074125;28;20279;-93
2023/06/23 01:07:18;;;;;;;2.97;0.50;;;16.80;99.90;;;;;;5063311;28;20196;-92
2023/06/23 01:09:59;;;;;;;0.65;0.30;;;16.80;99.90;;;;;;5095408;28;20195;-90
2023/06/23 01:12:36;;;;;;;0.60;0.30;;;17.00;99.90;;;;;;5077065;28;20195;-90
2023/06/23 01:15:14;;;;;;;1.40;0.38;;;17.00;99.90;;;;;;5094346;28;20202;-91
2023/06/23 01:17:51;;;;;;;1.13;0.50;;;17.00;99.90;;;;;;5094317;28;20193;-91
2023/06/23 01:20:27;;;;;;;0.88;0.30;;;17.10;99.90;;;;;;5060898;28;20202;-90
2023/06/23 01:23:43;;;;;;;0.73;0.30;;;17.20;99.90;;;;;;5094190;28;20250;-91
2023/06/23 01:26:29;;;;;;;1.65;0.38;;;17.30;99.90;;;;;;5056805;28;20200;-91
2023/06/23 01:29:11;;;;;;;0.88;0.20;;;17.30;99.90;;;;;;5074148;28;20199;-92
2023/06/23 01:31:49;;;;;;;0.55;0.20;;;17.30;99.90;;;;;;5094977;28;20203;-90
2023/06/23 01:34:24;;;;;;;1.23;0.50;;;17.40;99.90;;;;;;5096220;28;20316;-91
2023/06/23 01:37:02;;;;;;;0.43;0.20;;;17.30;99.90;;;;;;5095408;28;20206;-91
2023/06/23 01:39:38;;;;;;;1.38;0.30;;;17.30;99.90;;;;;;5095239;28;20280;-92
2023/06/23 01:42:18;;;;;;;0.20;0.10;;;17.40;99.90;;;;;;5114492;28;20321;-90
2023/06/23 01:44:54;;;;;;;0.95;0.30;;;17.50;99.90;;;;;;5094462;28;20654;-91
2023/06/23 01:47:29;;;;;;;0.80;0.35;;;17.60;99.90;;;;;;5108036;28;20263;-91
2023/06/23 01:50:04;;;;;;;0.25;0.20;;;17.60;99.90;;;;;;5116325;28;20273;-89
2023/06/23 01:52:37;;;;;;;0.70;0.30;;;17.60;99.90;;;;;;5115923;28;20201;-90
2023/06/23 01:55:10;;;;;;;0.38;0.30;;;17.70;99.90;;;;;;5119899;28;20197;-88
2023/06/23 01:57:44;;;;;;;0.30;0.30;;;17.70;99.90;;;;;;5113870;28;20194;-89
2023/06/23 02:00:24;;;;;;;0.85;0.20;;;17.70;99.90;;;;;;5113969;28;20301;-88
2023/06/23 02:02:56;;;;;;;0.63;0.52;;;17.70;99.90;;;;;;5112662;28;20226;-87
2023/06/23 02:05:30;;;;;;;2.08;0.40;;;17.90;99.90;;;;;;5113080;28;20195;-90
2023/06/23 02:08:04;;;;;;;1.98;0.43;;;18.00;99.90;;;;;;5108704;28;20198;-89
2023/06/23 02:10:35;;;;;;;0.90;0.20;;;18.10;99.90;;;;;;5093464;28;20241;-87
2023/06/23 02:13:07;;;;;;;0.70;0.30;;;18.10;99.90;;;;;;5110123;28;20766;-88
2023/06/23 02:15:44;;;;;;;0.68;0.40;;;18.10;99.90;;;;;;5118232;28;20560;-89
2023/06/23 02:18:18;;;;;;;0.63;0.40;;;18.20;99.90;;;;;;5117825;28;20646;-89
2023/06/23 02:20:49;;;;;;;0.35;0.30;;;18.20;99.90;;;;;;5102278;28;20561;-88
2023/06/23 02:23:21;;;;;;;3.70;0.43;;;18.30;99.90;;;;;;5095511;28;20220;-88
2023/06/23 02:25:53;;;;;;;0.70;0.28;;;18.30;99.90;;;;;;5116614;28;20270;-91
2023/06/23 02:28:25;;;;;;;2.63;0.47;;;18.40;99.90;;;;;;5111645;28;20205;-90
2023/06/23 02:31:01;;;;;;;0.65;0.30;;;18.40;99.90;;;;;;5111183;28;20219;-86
2023/06/23 02:33:31;;;;;;;2.22;0.50;;;18.50;99.90;;;;;;5109557;28;20213;-85
2023/06/23 02:36:05;;;;;;;2.50;0.22;;;18.50;99.30;;;;;;5117854;28;20206;-90
2023/06/23 02:38:38;;;;;;;0.88;0.30;;;18.50;98.30;;;;;;5113365;28;20190;-88
2023/06/23 02:41:12;;;;;;;0.20;0.20;;;18.40;95.90;;;;;;5114698;28;20237;-89
2023/06/23 02:43:50;;;;;;;0.68;0.30;;;18.40;94.40;;;;;;5134968;28;20200;-88
2023/06/23 02:46:27;;;;;;;0.40;0.40;;;18.40;94.80;;;;;;5134275;28;20194;-89
2023/06/23 02:49:04;;;;;;;0.98;0.43;;;18.40;90.30;;;;;;5115216;28;20209;-89
2023/06/23 02:51:40;;;;;;;0.50;0.45;;;18.40;92.10;;;;;;5098384;28;20198;-88
2023/06/23 02:54:17;;;;;;;1.55;0.50;;;18.40;91.70;;;;;;5094340;28;20209;-89
2023/06/23 02:56:50;;;;;;;0.85;0.20;;;18.50;92.50;;;;;;5113686;28;20210;-90
2023/06/23 02:59:23;;;;;;;3.83;0.30;;;18.60;92.90;;;;;;5112642;28;20198;-89
2023/06/23 03:01:59;;;;;;;1.20;0.20;;;18.60;92.70;;;;;;5115634;28;20261;-90
2023/06/23 03:04:30;;;;;;;0.52;0.30;;;18.60;93.10;;;;;;5112725;28;20551;-90
2023/06/23 03:07:03;;;;;;;0.15;0.15;;;18.70;93.30;;;;;;5113070;28;20557;-90
2023/06/23 03:09:34;;;;;;;0.50;0.30;;;18.70;91.60;;;;;;5110557;28;20198;-89
2023/06/23 03:12:06;;;;;;;0.80;0.30;;;18.80;90.30;;;;;;5112236;28;20194;-89
2023/06/23 03:14:37;;;;;;;0.30;0.20;;;18.80;91.00;;;;;;5113401;28;20198;-90
2023/06/23 03:17:21;;;;;;;0.50;0.20;;;18.70;88.80;;;;;;5112140;28;20194;-88
2023/06/23 03:19:57;;;;;;;0.95;0.30;;;18.80;88.90;;;;;;5112582;28;20191;-88
2023/06/23 03:22:36;;;;;;;0.60;0.35;;;18.80;86.20;;;;;;5112044;28;20301;-89
2023/06/23 03:25:12;;;;;;;0.63;0.20;;;18.70;85.90;;;;;;5111535;28;20199;-88
2023/06/23 03:27:44;;;;;;;0.70;0.30;;;18.70;87.00;;;;;;5102109;28;20205;-86
2023/06/23 03:30:21;;;;;;;0.20;0.20;;;18.70;83.60;;;;;;5094935;28;20275;-87
2023/06/23 03:32:56;;;;;;;0.55;0.28;;;18.70;84.90;;;;;;5109928;28;20217;-88
2023/06/23 03:35:30;;;;;;;0.93;0.40;;;18.80;83.50;;;;;;5115650;28;20198;-87
2023/06/23 03:38:06;;;;;;;0.88;0.40;;;18.80;83.70;;;;;;5115048;28;20653;-88
2023/06/23 03:40:42;;;;;;;0.20;0.20;;;18.70;79.30;;;;;;5114674;28;20726;-88
2023/06/23 03:43:20;;;;;;;0.40;0.20;;;18.80;81.20;;;;;;5115328;28;20632;-88
2023/06/23 03:45:56;;;;;;;0.73;0.30;;;18.80;82.90;;;;;;5114813;28;20237;-89
2023/06/23 03:48:34;;;;;;;0.65;0.20;;;18.90;83.10;;;;;;5081573;28;20213;-90
2023/06/23 03:51:06;;;;;;;0.45;0.25;;;18.90;80.80;;;;;;5116481;28;20607;-89
2023/06/23 03:53:40;;;;;;;0.28;0.20;;;18.80;79.00;;;;;;5115279;28;20220;-88
2023/06/23 03:56:13;;;;;;;0.35;0.20;;;18.70;76.80;;;;;;5120351;28;20274;-87
2023/06/23 03:58:45;;;;;;;0.50;0.20;;;18.70;76.20;;;;;;5115438;28;20282;-88
2023/06/23 04:01:19;;;;;;;0.10;0.10;;;18.80;79.90;;;;;;5115573;28;20202;-87
2023/06/23 04:03:53;;;;;;;0.47;0.20;;;18.80;77.30;;;;;;5125525;28;20201;-87
2023/06/23 04:06:27;;;;;;;0.20;0.17;;;18.90;77.80;;;;;;5122148;28;20202;-88
2023/06/23 04:09:01;;;;;;;0.40;0.10;;;18.90;77.90;;;;;;5114682;28;20278;-88
2023/06/23 04:11:34;;;;;;;0.73;0.30;;;18.90;77.00;;;;;;5114137;28;20322;-86
2023/06/23 04:14:06;;;;;;;0.68;0.30;;;18.80;74.00;;;;;;5113700;28;20206;-85
2023/06/23 04:16:40;;;;;;;1.13;0.22;;;18.80;77.60;;;;;;5113089;28;20187;-84
2023/06/23 04:19:16;;;;;;;0.50;0.30;;;18.80;77.90;;;;;;5106089;28;20765;-87
2023/06/23 04:21:50;;;;;;;0.10;0.10;;;18.80;75.20;;;;;;5104389;28;20202;-87
2023/06/23 04:24:22;;;;;;;1.00;0.32;;;18.80;75.50;;;;;;5113879;28;20202;-87
2023/06/23 04:26:59;;;;;;;1.45;0.20;;;18.80;75.50;;;;;;5113369;28;20191;-86
2023/06/23 04:29:32;;;;;;;0.30;0.20;;;18.80;73.30;;;;;;5113446;28;20191;-86
2023/06/23 04:32:04;;;;;;;0.55;0.20;;;18.80;73.10;;;;;;5113516;28;20194;-87
2023/06/23 04:34:37;;;;;;;1.88;0.30;;;18.80;71.50;;;;;;5113443;28;20193;-87
2023/06/23 04:37:13;;;;;;;0.55;0.25;;;18.80;72.70;;;;;;5098201;28;20665;-87
2023/06/23 04:39:49;;;;;;;1.13;0.30;;;18.80;71.10;;;;;;5110777;28;20190;-86
2023/06/23 04:42:27;;;;;;;0.20;0.20;;;18.80;70.80;;;;;;5093133;28;20230;-86
2023/06/23 04:45:04;;;;;;;2.25;0.30;;;18.80;69.40;;;;;;5089809;28;20839;-86
2023/06/23 04:47:38;;;;;;;0.10;0.10;;;18.90;68.60;;;;;;5084283;28;20188;-87
2023/06/23 04:50:17;;;;;;;0.45;0.28;;;18.90;69.40;;;;;;5072988;28;20202;-87
2023/06/23 04:52:55;;;;;;;0.30;0.20;;;18.90;70.10;;;;;;5091985;28;20199;-84
2023/06/23 04:55:30;;;;;;;1.17;0.40;;;18.80;67.00;;;;;;5089207;28;20201;-85
2023/06/23 04:58:05;;;;;;;2.10;0.40;;;18.80;66.40;;;;;;5085351;28;20223;-86
2023/06/23 05:00:37;;;;;;;0.90;0.40;;;18.80;64.10;;;;;;5093125;28;20201;-86
2023/06/23 05:03:08;;;;;;;2.40;0.30;;;18.90;62.20;;;;;;5089274;28;20227;-86
2023/06/23 05:05:43;;;;;;;1.50;0.40;;;18.90;65.40;;;;;;5088432;28;20698;-87
2023/06/23 05:08:15;;;;;;;1.55;0.40;;;18.90;65.20;;;;;;5092146;28;20198;-85
2023/06/23 05:10:49;;;;;;;0.65;0.20;;;18.80;65.20;;;;;;5074760;28;20199;-85
2023/06/23 05:13:21;;;;;;;0.38;0.30;;;18.80;65.50;;;;;;5087100;28;20218;-85
2023/06/23 05:15:52;;;;;;;0.47;0.38;;;18.80;64.60;;;;;;5092422;28;20690;-85
2023/06/23 05:18:25;;;;;;;0.40;0.30;;;18.80;64.30;;;;;;5089680;28;20233;-84
2023/06/23 05:21:01;;;;;;;0.38;0.22;;;18.80;63.80;;;;;;5071565;28;20282;-85
2023/06/23 05:23:34;;;;;;;1.77;0.30;;;18.80;63.40;;;;;;5071083;28;20224;-86
2023/06/23 05:26:07;;;;;;;0.35;0.30;;;18.80;64.20;;;;;;5071826;28;20302;-85
2023/06/23 05:28:40;;;;;;;0.80;0.30;;;18.70;64.20;;;;;;5071554;28;20256;-86
2023/06/23 05:31:13;;;;;;;0.30;0.20;;;18.70;63.60;;;;;;5090329;28;20550;-86
2023/06/23 05:33:46;;;;;;;1.75;0.22;;;18.70;63.10;;;;;;5091655;28;20199;-85
2023/06/23 05:36:21;;;;;;;0.40;0.20;;;18.60;63.30;;;;;;5090988;28;20199;-86
2023/06/23 05:38:55;;;;;;;0.40;0.20;;;18.70;63.90;;;;;;5090604;28;20187;-86
2023/06/23 05:41:26;;;;;;;0.20;0.20;;;18.70;63.60;;;;;;5085417;28;20230;-87
2023/06/23 05:43:56;;;;;;;0.82;0.30;;;18.60;63.80;;;;;;5091345;28;20227;-88
2023/06/23 05:46:30;;;;;;;0.40;0.28;;;18.70;64.40;;;;;;5091423;28;20191;-88
2023/06/23 05:49:08;;;;;;;0.90;0.32;;;18.70;64.50;;;;;;5108674;28;20194;-88
2023/06/23 05:51:43;;;;;;;0.20;0.20;;;18.70;64.70;;;;;;5111766;28;20205;-87
2023/06/23 05:54:16;;;;;;;0.43;0.20;;;18.60;64.40;;;;;;5111828;28;20728;-87
2023/06/23 05:56:53;;;;;;;0.47;0.30;;;18.60;64.90;;;;;;5111171;28;20195;-87
2023/06/23 05:59:30;;;;;;;0.65;0.40;;;18.50;64.40;;;;;;5112062;28;20565;-86
2023/06/23 06:02:02;;;;;;;2.28;0.20;;;18.50;65.70;;;;;;5111878;28;20194;-86
2023/06/23 06:04:35;;;;;;;0.52;0.30;;;18.50;66.40;;;;;;5111792;28;20677;-85
2023/06/23 06:07:10;;;;;;;0.65;0.22;;;18.50;66.50;;;;;;5111895;28;20190;-83
2023/06/23 06:09:42;;;;;;;0.52;0.30;;;18.60;66.70;;;;;;5117897;28;20253;-86
2023/06/23 06:12:15;;;;;;;0.50;0.30;;;18.50;64.20;;;;;;5120309;28;20205;-86
2023/06/23 06:14:48;;;;;;;1.23;0.40;;;18.50;66.00;;;;;;5091803;28;20195;-86
2023/06/23 06:17:21;;;;;;;0.65;0.40;;;18.50;64.50;;;;;;5091078;28;20199;-86
2023/06/23 06:19:55;;;;;;;0.30;0.30;;;18.40;64.60;;;;;;5091663;28;20191;-86
2023/06/23 06:22:29;;;;;;;2.80;0.35;;;18.40;66.20;;;;;;5103526;28;20198;-87
2023/06/23 06:25:02;;;;;;;4.20;0.40;;;18.40;65.90;;;;;;5111926;28;20739;-86
2023/06/23 06:27:35;;;;;;;3.10;0.43;;;18.50;66.00;;;;;;5111263;28;20214;-86
2023/06/23 06:30:08;;;;;;;3.25;0.50;;;18.50;68.30;;;;;;5110271;28;20212;-87
2023/06/23 06:32:44;;;;;;;0.43;0.40;;;18.50;67.10;;;;;;5109373;28;20568;-87
2023/06/23 06:35:15;;;;;;;1.27;0.30;;;18.20;66.10;;;;;;5094849;28;20201;-86
2023/06/23 06:37:53;;;;;;;0.80;0.47;;;18.10;67.00;;;;;;5111167;28;20203;-87
2023/06/23 06:40:26;;;;;;;2.45;0.70;;;18.10;66.70;;;;;;5100074;28;20227;-86
2023/06/23 06:42:57;;;;;;;0.70;0.55;;;18.00;67.30;;;;;;5090833;28;20293;-87
2023/06/23 06:45:29;;;;;;;0.95;0.47;;;17.90;67.60;;;;;;5091074;28;20195;-87
2023/06/23 06:48:01;;;;;;;0.45;0.45;;;17.90;68.60;;;;;;5097438;28;20289;-87
2023/06/23 06:50:33;;;;;;;2.92;0.60;;;17.90;70.00;;;;;;5110584;28;20259;-86
2023/06/23 06:53:06;;;;;;;2.83;0.40;;;17.80;68.40;;;;;;5111166;28;20220;-86
2023/06/23 06:55:38;;;;;;;0.75;0.50;;;17.80;69.10;;;;;;5111330;28;20194;-84
2023/06/23 06:58:09;;;;;;;1.38;0.50;;;17.70;69.90;;;;;;5111017;28;20191;-85
2023/06/23 07:00:41;;;;;;;1.23;0.50;;;17.70;70.90;;;;;;5111008;28;20285;-86
2023/06/23 07:03:12;;;;;;;1.15;0.63;;;17.60;70.50;;;;;;5113131;28;20214;-86
2023/06/23 07:05:44;;;;;;;0.45;0.40;;;17.50;72.00;;;;;;5103835;28;20320;-89
2023/06/23 07:08:16;;;;;;;2.15;0.60;;;17.60;72.30;;;;;;5095466;28;20661;-89
2023/06/23 07:10:47;;;;;;;1.95;1.65;;;17.50;73.20;;;;;;5095871;28;20206;-88
2023/06/23 07:13:18;;;;;;;2.28;1.63;;;17.40;73.70;;;;;;5106302;28;20298;-88
2023/06/23 07:15:49;;;;;;;0.47;0.40;;;17.40;75.60;;;;;;5116147;28;20281;-90
2023/06/23 07:18:20;;;;;;;0.60;0.40;;;17.30;74.20;;;;;;5115954;28;20571;-89
2023/06/23 07:20:51;;;;;;;0.40;0.30;;;17.20;74.30;;;;;;5116484;28;20203;-89
2023/06/23 07:23:25;;;;;;;2.45;0.70;;;17.20;74.90;;;;;;5100931;28;20218;-89
2023/06/23 07:25:57;;;;;;;2.50;1.77;;;17.20;72.70;;;;;;5096184;28;20290;-86
2023/06/23 07:28:28;;;;;;;0.68;0.60;;;17.20;73.90;;;;;;5094838;28;20616;-88
2023/06/23 07:30:59;;;;;;;2.10;0.57;;;17.20;74.50;;;;;;5110947;28;20194;-88
2023/06/23 07:33:30;;;;;;;1.58;0.93;;;17.10;76.50;;;;;;5096209;28;20203;-89
2023/06/23 07:36:01;;;;;;;0.68;0.50;;;17.10;75.40;;;;;;5114485;28;20208;-89
2023/06/23 07:38:33;;;;;;;1.73;0.80;;;17.00;74.90;;;;;;5117433;28;20198;-88
2023/06/23 07:41:04;;;;;;;0.70;0.70;;;17.00;75.40;;;;;;5114287;28;20720;-89
2023/06/23 07:43:35;;;;;;;0.63;0.63;;;17.00;75.80;;;;;;5115711;28;20218;-89
2023/06/23 07:46:06;;;;;;;5.18;3.95;;;17.00;75.90;;;;;;5115773;28;20197;-88
2023/06/23 07:48:37;;;;;;;5.57;5.05;;;16.90;75.80;;;;;;5095417;28;20201;-89
2023/06/23 07:51:08;;;;;;;2.65;2.30;;;16.90;76.80;;;;;;5094947;28;20252;-90
2023/06/23 07:53:42;;;;;;;4.38;0.93;;;16.90;76.20;;;;;;5095175;28;20260;-87
2023/06/23 07:56:14;;;;;;;1.10;1.00;;;16.80;77.60;;;;;;5110461;28;20194;-88
2023/06/23 07:58:45;;;;;;;1.00;0.80;;;16.80;77.40;;;;;;5116336;28;20210;-88
2023/06/23 08:01:16;;;;;;;2.08;0.60;;;16.80;77.60;;;;;;5115060;28;20210;-89
2023/06/23 08:03:49;;;;;;;0.70;0.60;;;16.70;78.70;;;;;;5114720;28;20218;-88
2023/06/23 08:06:23;;;;;;;4.13;3.50;;;16.70;78.90;;;;;;5113664;28;20197;-89
2023/06/23 08:08:56;;;;;;;3.15;2.85;;;16.60;80.20;;;;;;5115455;28;20209;-88
2023/06/23 08:11:27;;;;;;;2.55;1.80;;;16.60;79.90;;;;;;5114945;28;20194;-87
2023/06/23 08:14:00;;;;;;;1.70;1.60;;;16.60;79.80;;;;;;5120971;28;20763;-88
2023/06/23 08:16:30;;;;;;;0.52;0.40;;;16.60;79.50;;;;;;5119554;28;20267;-87
2023/06/23 08:19:01;;;;;;;0.68;0.60;;;16.60;78.50;;;;;;5119316;28;20206;-88
2023/06/23 08:21:34;;;;;;;0.90;0.90;;;16.50;80.10;;;;;;5096639;28;20285;-87
2023/06/23 08:24:07;;;;;;;1.73;0.90;;;16.50;79.50;;;;;;5113293;28;20249;-87
2023/06/23 08:26:39;;;;;;;1.15;0.70;;;16.40;80.80;;;;;;5114014;28;20197;-87
2023/06/23 08:29:11;;;;;;;1.05;0.70;;;16.50;80.80;;;;;;5114376;28;20278;-88
2023/06/23 08:31:42;;;;;;;1.00;0.65;;;16.40;80.50;;;;;;5114122;28;20195;-87
2023/06/23 08:34:13;;;;;;;1.15;0.80;;;16.40;81.00;;;;;;5113753;28;20209;-88
2023/06/23 08:36:44;;;;;;;1.23;0.70;;;16.50;81.20;;;;;;5114324;28;20194;-89
2023/06/23 08:39:17;;;;;;;0.73;0.73;;;16.40;81.70;;;;;;5112005;28;20642;-89
2023/06/23 08:41:50;;;;;;;2.88;1.02;;;16.40;82.60;;;;;;5114547;28;20299;-89
2023/06/23 08:44:27;;;;;;;0.82;0.77;;;16.30;83.70;;;;;;5115257;28;20714;-89
2023/06/23 08:47:01;;;;;;;1.67;0.90;;;16.30;83.00;;;;;;5114472;28;20201;-88
2023/06/23 08:49:34;;;;;;;1.08;0.70;;;16.30;83.30;;;;;;5114650;28;20225;-89
2023/06/23 08:52:06;;;;;;;0.70;0.70;;;16.20;83.40;;;;;;5115144;28;20195;-90
2023/06/23 08:54:40;;;;;;;1.35;0.80;;;16.10;84.80;;;;;;5114844;28;20684;-93
2023/06/23 08:57:11;;;;;;;0.90;0.82;;;16.10;85.90;;;;;;5093793;28;20203;-89
2023/06/23 08:59:42;;;;;;;1.73;1.40;;;16.10;86.30;;;;;;5095146;28;20497;-89
2023/06/23 09:02:14;;;;;;;1.27;1.00;;;16.10;86.40;;;;;;5101224;28;20197;-91
2023/06/23 09:04:45;;;;;;;1.00;0.90;;;16.20;87.00;;;;;;5100125;28;20235;-91
2023/06/23 09:07:16;;;;;;;1.48;1.08;;;16.10;86.90;;;;;;5101403;28;20339;-90
2023/06/23 09:09:50;;;;;;;1.00;0.80;;;16.00;88.90;;;;;;5114504;28;20210;-90
2023/06/23 09:12:24;;;;;;;2.38;1.70;;;16.00;88.10;;;;;;5115335;28;20202;-90
2023/06/23 09:14:57;;;;;;;1.88;0.90;;;16.00;89.00;;;;;;5114896;28;20259;-89
2023/06/23 09:17:29;;;;;;;2.20;1.30;;;16.00;90.00;;;;;;5114491;28;20259;-90
2023/06/23 09:20:03;;;;;;;2.10;0.98;;;16.00;90.10;;;;;;5090868;28;20202;-90
2023/06/23 09:22:36;;;;;;;0.90;0.77;;;16.00;90.10;;;;;;5076461;28;20681;-90
2023/06/23 09:25:13;;;;;;;1.60;1.10;;;16.00;90.20;;;;;;5106018;28;20226;-90
2023/06/23 09:27:45;;;;;;;4.93;3.50;;;16.00;90.20;;;;;;5113701;28;20685;-90
2023/06/23 09:30:17;;;;;;;4.50;3.90;;;16.00;90.90;;;;;;5113549;28;20583;-89
2023/06/23 09:32:48;;;;;;;3.92;3.58;;;15.90;91.30;;;;;;5113500;28;20658;-89
2023/06/23 09:35:22;;;;;;;6.53;5.85;;;15.90;92.00;;;;;;5113556;28;20683;-90
2023/06/23 09:37:54;;;;;;;3.00;2.67;;;15.90;91.80;;;;;;5113534;28;20196;-89
2023/06/23 09:40:33;;;;;;;2.15;1.50;;;15.90;92.00;;;;;;5113574;28;20351;-92
2023/06/23 09:43:05;;;;;;;3.17;2.88;;;15.80;92.40;;;;;;5112495;28;20277;-91
2023/06/23 09:45:40;;;;;;;1.85;1.35;;;15.80;92.80;;;;;;5113134;28;20226;-89
2023/06/23 09:48:19;;;;;;;1.58;0.95;;;15.80;93.20;;;;;;5113732;28;20280;-90
2023/06/23 09:51:04;;;;;;;1.17;0.77;;;15.70;93.90;;;;;;5117651;28;20198;-89
2023/06/23 09:53:40;;;;;;;1.63;1.33;;;15.70;94.50;;;;;;5113409;28;20197;-92
2023/06/23 09:56:18;;;;;;;1.15;1.05;;;15.60;94.60;;;;;;5114109;28;20213;-92
2023/06/23 09:58:52;;;;;;;4.10;2.38;;;15.60;95.40;;;;;;5113578;28;20662;-91
2023/06/23 10:01:25;;;;;;;1.75;1.63;;;15.60;96.10;;;;;;5112612;28;20212;-91
2023/06/23 10:03:58;;;;;;;1.73;1.25;;;15.50;96.00;;;;;;5114027;28;20230;-91
2023/06/23 10:06:32;;;;;;;2.90;1.25;;;15.50;96.60;;;;;;5114669;28;20198;-92
2023/06/23 10:09:05;;;;;;;1.13;0.98;;;15.50;97.80;;;;;;5113754;28;20198;-90
2023/06/23 10:11:39;;;;;;;1.35;1.20;;;15.50;97.10;;;;;;5113943;28;20247;-89
2023/06/23 10:14:13;;;;;;;1.40;1.20;;;15.40;97.60;;;;;;5112935;28;20190;-93
2023/06/23 10:16:46;;;;;;;1.77;1.67;;;15.40;99.10;;;;;;5113267;28;20657;-93
2023/06/23 10:19:17;;;;;;;1.92;1.50;;;15.40;99.90;;;;;;5097967;28;20224;-91
2023/06/23 10:21:49;;;;;;;1.20;1.10;;;15.40;99.90;;;;;;5125148;28;20688;-88
2023/06/23 10:24:22;;;;;;;1.63;0.90;;;15.20;99.90;;;;;;5123480;28;20222;-90
2023/06/23 10:26:59;;;;;;;2.00;0.90;;;15.30;99.90;;;;;;5114486;28;20206;-92
2023/06/23 10:29:32;;;;;;;1.15;0.90;;;15.30;99.90;;;;;;5098543;28;20200;-93
2023/06/23 10:32:05;;;;;;;3.28;2.25;;;15.30;99.90;;;;;;5112204;27;20213;-93
2023/06/23 10:34:39;;;;;;;9.10;6.70;;;15.20;99.90;;;;;;5097823;28;20193;-92
2023/06/23 10:37:14;;;;;;;7.05;5.00;;;15.20;99.90;;;;;;5113977;28;20218;-94
2023/06/23 10:39:51;;;;;;;2.88;1.90;;;15.10;99.90;;;;;;5113116;28;20204;-94
2023/06/23 10:42:26;;;;;;;2.45;1.60;;;15.20;99.90;;;;;;5114743;28;20610;-93
2023/06/23 10:45:01;;;;;;;1.42;1.17;;;15.20;99.90;;;;;;5095922;28;20225;-92
2023/06/23 10:47:33;;;;;;;1.58;1.15;;;15.20;99.90;;;;;;5114244;28;20202;-91
2023/06/23 10:50:04;;;;;;;0.98;0.90;;;15.20;99.90;;;;;;5114035;28;20212;-92
2023/06/23 10:52:37;;;;;;;1.13;0.90;;;15.20;99.90;;;;;;5117163;28;20684;-91
2023/06/23 10:58:30;;;;;;;2.10;0.98;;;15.10;99.90;;;;;;5123635;28;20196;-93
2023/06/23 11:01:05;;;;;;;1.85;0.90;;;15.00;99.90;;;;;;5121921;28;20277;-94
2023/06/23 11:03:40;;;;;;;1.63;0.70;;;15.00;99.90;;;;;;5123683;28;20239;-94
2023/06/23 11:06:13;;;;;;;1.13;1.02;;;15.00;99.90;;;;;;5124700;28;20212;-90
2023/06/23 11:08:47;;;;;;;1.48;1.00;;;15.00;99.90;;;;;;5137308;28;20226;-93
2023/06/23 11:11:19;;;;;;;1.17;0.70;;;15.00;99.90;;;;;;5126876;28;20205;-93
2023/06/23 11:13:58;;;;;;;0.95;0.85;;;15.00;99.90;;;;;;5108599;28;20266;-93
2023/06/23 11:16:34;;;;;;;0.77;0.77;;;15.00;99.90;;;;;;5097517;28;20191;-94
2023/06/23 11:19:07;;;;;;;1.05;0.80;;;15.00;99.90;;;;;;5100131;28;20232;-93
2023/06/23 11:21:41;;;;;;;1.02;0.90;;;15.00;99.90;;;;;;5099422;28;20282;-93
2023/06/23 11:24:15;;;;;;;1.35;0.90;;;14.90;99.90;;;;;;5098624;28;20221;-94
2023/06/23 11:26:48;;;;;;;1.77;1.33;;;14.80;99.90;;;;;;5099698;28;20183;-92
2023/06/23 11:29:26;;;;;;;2.40;0.80;;;14.80;99.90;;;;;;5116199;28;20198;-93
2023/06/23 11:32:11;;;;;;;1.00;0.73;;;14.80;99.90;;;;;;5120799;28;20194;-92
2023/06/23 11:34:58;;;;;;;1.67;0.80;;;14.80;99.90;;;;;;5122698;28;20190;-94
2023/06/23 11:37:31;;;;;;;1.05;0.88;;;14.70;99.90;;;;;;5120889;28;20202;-94
2023/06/23 11:40:05;;;;;;;1.27;1.17;;;14.80;99.90;;;;;;5116467;28;20205;-94
2023/06/23 11:42:38;;;;;;;0.90;0.90;;;14.70;99.90;;;;;;5114683;28;20198;-93
2023/06/23 11:45:14;;;;;;;1.17;0.98;;;14.70;99.90;;;;;;5119567;28;20230;-92
2023/06/23 11:47:46;;;;;;;1.15;1.05;;;14.70;99.90;;;;;;5114376;28;20285;-93
2023/06/23 11:50:18;;;;;;;0.80;0.80;;;14.70;99.90;;;;;;5119717;28;20201;-93
2023/06/23 11:52:54;;;;;;;1.25;0.70;;;14.70;99.90;;;;;;5119592;28;20263;-92
2023/06/23 11:55:26;;;;;;;1.83;0.70;;;14.70;99.90;;;;;;5120831;28;20197;-94
2023/06/23 11:57:59;;;;;;;1.70;0.73;;;14.70;99.90;;;;;;5126159;28;20222;-93
2023/06/23 12:00:41;;;;;;;0.80;0.80;;;14.70;99.90;;;;;;5106723;28;20203;-93
2023/06/23 12:03:17;;;;;;;0.60;0.60;;;14.80;99.90;;;;;;5123635;28;20286;-93
2023/06/23 12:05:51;;;;;;;1.02;0.85;;;14.80;99.90;;;;;;5117529;28;20316;-93
2023/06/23 12:08:27;;;;;;;1.00;0.68;;;14.80;99.90;;;;;;5105289;28;20277;-94
2023/06/23 12:11:02;;;;;;;1.15;0.70;;;14.70;99.90;;;;;;5122219;28;20243;-91
2023/06/23 12:13:34;;;;;;;0.80;0.80;;;14.80;99.90;;;;;;5122365;28;20198;-93
2023/06/23 12:16:11;;;;;;;0.60;0.60;;;14.70;99.90;;;;;;5123681;28;20223;-92
2023/06/23 12:18:53;;;;;;;1.50;0.60;;;14.70;99.90;;;;;;5124162;28;20557;-93
2023/06/23 12:21:27;;;;;;;0.70;0.60;;;14.80;99.90;;;;;;5121776;28;20193;-93
2023/06/23 12:23:59;;;;;;;0.52;0.52;;;14.70;99.90;;;;;;5124009;28;20259;-93
2023/06/23 12:26:35;;;;;;;0.60;0.57;;;14.70;99.90;;;;;;5134269;28;20210;-93
2023/06/23 12:29:23;;;;;;;0.50;0.50;;;14.70;99.90;;;;;;5129334;28;20644;-93
2023/06/23 12:32:03;;;;;;;0.60;0.50;;;14.70;99.90;;;;;;5102657;28;20734;-91
2023/06/23 12:34:36;;;;;;;0.70;0.70;;;14.70;99.90;;;;;;5099324;28;20282;-94
2023/06/23 12:37:14;;;;;;;0.68;0.55;;;14.70;99.90;;;;;;5118267;28;20183;-94
2023/06/23 12:39:57;;;;;;;0.52;0.52;;;14.70;99.90;;;;;;5103409;28;20198;-93
2023/06/23 12:42:30;;;;;;;0.50;0.50;;;14.70;99.90;;;;;;5121726;28;20200;-91
2023/06/23 12:45:01;;;;;;;0.82;0.60;;;14.60;99.90;;;;;;5121455;28;20226;-91
2023/06/23 12:47:36;;;;;;;0.60;0.60;;;14.60;99.90;;;;;;5119991;28;20277;-92
2023/06/23 12:50:10;;;;;;;0.75;0.60;;;14.60;99.90;;;;;;5121913;28;20202;-91
2023/06/23 12:52:45;;;;;;;1.40;1.30;;;14.60;99.90;;;;;;5125108;28;20209;-94
2023/06/23 12:55:19;;;;;;;1.00;1.00;;;14.60;99.90;;;;;;5124145;28;20285;-92
2023/06/23 12:57:54;;;;;;;1.05;0.70;;;14.60;99.90;;;;;;5110763;28;20198;-93
2023/06/23 13:00:29;;;;;;;1.13;0.70;;;14.50;99.90;;;;;;5102422;28;20202;-92
2023/06/23 13:03:04;;;;;;;0.57;0.57;;;14.50;99.90;;;;;;5120431;28;20214;-92
2023/06/23 13:05:36;;;;;;;1.02;0.75;;;14.50;99.90;;;;;;5107148;28;20595;-94
2023/06/23 13:08:09;;;;;;;1.30;0.80;;;14.40;99.90;;;;;;5123111;28;20306;-92
2023/06/23 13:10:41;;;;;;;1.85;0.98;;;14.40;99.90;;;;;;5117579;28;20194;-93
2023/06/23 13:13:16;;;;;;;0.80;0.80;;;14.30;99.90;;;;;;5118792;28;20286;-94
2023/06/23 13:15:49;;;;;;;0.60;0.60;;;14.30;99.90;;;;;;5101272;28;20233;-91
2023/06/23 13:18:23;;;;;;;0.82;0.73;;;14.30;99.90;;;;;;5101469;28;20229;-92
2023/06/23 13:20:55;;;;;;;1.00;0.68;;;14.30;99.90;;;;;;5117280;28;20280;-93
2023/06/23 13:23:41;;;;;;;0.80;0.80;;;14.40;99.90;;;;;;5115489;28;20672;-92
2023/06/23 13:26:16;;;;;;;0.80;0.75;;;14.40;99.90;;;;;;5097746;28;20229;-93